Warsaw, MN (55087)

10:04 PM CDT on May 25, 2015 (GMT -0500)
Tom Scott - Morristown - Country Side | | Change Station
CLOSE
Current Station
Personal Weather Station
Location: Morristown, MN
Elevation: 1089 ft
Nearby Weather Stations

Elev 1089 ft 44.21 °N, 93.41 °W | Updated 14 minutes ago

Clear
Clear
62.1 °F
Feels Like 62.1 °F
N
3.2
Wind Variable Wind from SSE

Today
High -- | Low -- °F
--% Chance of Precip.
Yesterday
High -- | Low -- °F
Precip. -- in
5:37 AM 8:43 PM
First Quarter, 54% visible
Pressure 29.78 in
Visibility 7.0 miles
Clouds Scattered Clouds 8500 ft
Dew Point 62 °F
Humidity 99%
Rainfall 0.55 in
Snow Depth Not available.
UV 0 out of 12
Pollen .90 out of 12
Air Quality Not available.
Flu Activity Sporadic
METAR KFBL 260254Z AUTO 16003KT 7SM SCT085 17/16 A2978 RMK AO2

More Conditions Fewer Conditions

Pressure 29.78 in
Visibility 7.0 miles
Clouds Scattered Clouds 8500 ft
Dew Point 62 °F
Humidity 99%
Rainfall 0.55 in
Snow Depth Not available.
UV 0 out of 12
Pollen .90 out of 12
Air Quality Not available.
Flu Activity Sporadic
METAR KFBL 260254Z AUTO 16003KT 7SM SCT085 17/16 A2978 RMK AO2

More Conditions Fewer Conditions

10-Day Weather Forecast

Almanac

Astronomy

May. 25, 2015 Rise Set
Actual Time
Civil Twilight
Nautical Twilight
Astronomical Twilight
Moon
Length of Visible Light
Length of Day
Tomorrow will be .
, % of the Moon is Illuminated

Today's Extremes

State Highs State Lows

Community

WunderPhotos

Upload Photos

1,824,245 photos uploaded!

WunderBlogs® & News

Nearby

Air Quality

  Air Quality AQ Index Pollutant
Not available.

Snow Depth

Station Depth Elevation

Earthquake Activity

City Distance Mag. Time & Date
Minimum magnitude displayed is 2.5.

Coastal Water Temperatures

Place Temperature

Stations

Nearby Weather Stations

Station Location Temp. Windchill Dew Point Humidity Wind Precip. Elev Updated Type